createdAt,value
2018-02-16T00:02:01.407Z,29.60
2018-02-16T00:04:28.842Z,28.73
2018-02-16T00:06:56.285Z,28.85
2018-02-16T00:09:23.742Z,29.65
2018-02-16T00:11:51.179Z,30.50
2018-02-16T00:14:19.390Z,30.35
2018-02-16T00:16:46.813Z,32.00
2018-02-16T00:19:15.046Z,35.83
2018-02-16T00:21:42.479Z,30.92
2018-02-16T00:24:09.922Z,29.50
2018-02-16T00:26:37.380Z,33.15
2018-02-16T00:29:04.805Z,28.90
2018-02-16T00:31:33.036Z,29.63
2018-02-16T00:34:00.451Z,30.42
2018-02-16T00:36:44.301Z,29.50
2018-02-16T00:39:11.737Z,31.27
2018-02-16T00:41:39.929Z,30.77
2018-02-16T00:44:07.361Z,25.95
2018-02-16T00:46:35.576Z,26.27
2018-02-16T00:49:03.016Z,31.40
2018-02-16T00:51:30.449Z,28.67
2018-02-16T00:53:58.655Z,28.60
2018-02-16T00:56:26.138Z,28.58
2018-02-16T00:58:53.581Z,27.73
2018-02-16T01:01:21.050Z,31.27
2018-02-16T01:03:53.426Z,29.00
2018-02-16T01:06:20.878Z,27.35
2018-02-16T01:08:48.329Z,34.17
2018-02-16T01:11:15.771Z,31.98
2018-02-16T01:13:43.250Z,28.45
2018-02-16T01:16:10.669Z,31.00
2018-02-16T01:18:38.197Z,30.50
2018-02-16T01:21:05.599Z,27.77
2018-02-16T01:23:33.095Z,30.25
2018-02-16T01:26:00.636Z,26.27
2018-02-16T01:28:28.058Z,28.97
2018-02-16T01:30:55.533Z,29.80
2018-02-16T01:33:22.966Z,32.28
2018-02-16T01:35:50.392Z,31.77
2018-02-16T01:38:18.585Z,27.55
2018-02-16T01:40:46.082Z,28.70
2018-02-16T01:43:13.539Z,31.63
2018-02-16T01:45:40.993Z,32.63
2018-02-16T01:48:08.455Z,28.03
2018-02-16T01:50:36.113Z,33.17
2018-02-16T01:53:03.570Z,34.83
2018-02-16T01:55:31.027Z,32.40
2018-02-16T01:57:58.575Z,29.75
2018-02-16T02:00:26.154Z,30.10
2018-02-16T02:02:53.608Z,31.00
2018-02-16T02:05:21.050Z,31.67
2018-02-16T02:07:48.623Z,28.65
2018-02-16T02:10:16.053Z,30.55
2018-02-16T02:12:43.484Z,32.30
2018-02-16T02:15:10.980Z,27.92
2018-02-16T02:17:38.516Z,32.93
2018-02-16T02:20:05.950Z,35.05
2018-02-16T02:22:34.173Z,32.92
2018-02-16T02:25:01.618Z,27.05
2018-02-16T02:27:29.053Z,29.33
2018-02-16T02:29:56.482Z,35.85
2018-02-16T02:32:24.692Z,34.13
2018-02-16T02:34:52.157Z,35.97
2018-02-16T02:37:19.630Z,30.70
2018-02-16T02:39:47.074Z,38.88
2018-02-16T02:42:14.505Z,34.05
2018-02-16T02:44:41.964Z,34.10
2018-02-16T02:47:09.385Z,33.90
2018-02-16T02:49:37.582Z,34.88
2018-02-16T02:52:05.049Z,32.55
2018-02-16T02:54:32.532Z,38.13
2018-02-16T02:56:59.965Z,33.60
2018-02-16T02:59:27.402Z,38.13
2018-02-16T03:01:54.842Z,32.78
2018-02-16T03:04:22.279Z,32.35
2018-02-16T03:06:49.806Z,32.22
2018-02-16T03:09:17.247Z,33.45
2018-02-16T03:11:44.689Z,34.15
2018-02-16T03:14:12.132Z,32.10
2018-02-16T03:16:40.346Z,33.10
2018-02-16T03:19:07.790Z,37.45
2018-02-16T03:21:35.225Z,36.95
2018-02-16T03:24:02.661Z,32.35
2018-02-16T03:26:30.080Z,32.65
2018-02-16T03:28:57.514Z,36.15
2018-02-16T03:31:24.954Z,32.35
2018-02-16T03:33:52.386Z,33.35
2018-02-16T03:36:20.605Z,34.00
2018-02-16T03:38:48.070Z,32.33
2018-02-16T03:41:15.481Z,39.35
2018-02-16T03:43:43.688Z,33.67
2018-02-16T03:46:11.129Z,29.80
2018-02-16T03:48:38.569Z,33.67
2018-02-16T03:51:06.766Z,30.77
2018-02-16T03:53:34.205Z,35.20
2018-02-16T03:56:01.649Z,34.45
2018-02-16T03:58:29.849Z,35.72
2018-02-16T04:00:57.285Z,36.70
2018-02-16T04:03:25.480Z,31.85
2018-02-16T04:05:52.909Z,36.72
2018-02-16T04:08:21.125Z,34.08
2018-02-16T04:10:48.571Z,33.58
2018-02-16T04:13:16.009Z,32.78
2018-02-16T04:15:43.445Z,32.03
2018-02-16T04:18:11.659Z,36.97
2018-02-16T04:20:39.098Z,30.80
2018-02-16T04:23:06.545Z,31.87
2018-02-16T04:25:34.751Z,34.50
2018-02-16T04:28:02.185Z,31.50
2018-02-16T04:30:29.609Z,31.45
2018-02-16T04:32:57.044Z,31.12
2018-02-16T04:35:24.466Z,36.22
2018-02-16T04:37:51.897Z,34.70
2018-02-16T04:40:19.338Z,37.30
2018-02-16T04:42:46.773Z,36.55
2018-02-16T04:45:14.209Z,35.92
2018-02-16T04:47:41.652Z,35.13
2018-02-16T04:50:09.084Z,34.33
2018-02-16T04:52:37.417Z,33.85
2018-02-16T04:55:04.856Z,33.53
2018-02-16T04:57:32.285Z,31.40
2018-02-16T04:59:59.717Z,35.25
2018-02-16T05:02:27.921Z,32.42
2018-02-16T05:04:55.353Z,34.45
2018-02-16T05:07:23.554Z,33.40
2018-02-16T05:09:50.998Z,31.10
2018-02-16T05:12:18.443Z,35.80
2018-02-16T05:14:45.885Z,31.17
2018-02-16T05:17:14.083Z,33.35
2018-02-16T05:19:41.513Z,31.17
2018-02-16T05:22:09.717Z,31.50
2018-02-16T05:24:37.155Z,32.90
2018-02-16T05:27:05.345Z,32.30
2018-02-16T05:29:32.780Z,31.98
2018-02-16T05:32:00.993Z,35.45
2018-02-16T05:34:28.416Z,37.17
2018-02-16T05:36:55.858Z,33.05
2018-02-16T05:39:24.061Z,34.00
2018-02-16T05:41:51.501Z,30.95
2018-02-16T05:44:19.723Z,33.83
2018-02-16T05:46:47.150Z,32.83
2018-02-16T05:49:14.610Z,30.75
2018-02-16T05:51:42.045Z,34.03
2018-02-16T05:54:09.498Z,34.70
2018-02-16T05:56:37.701Z,31.52
2018-02-16T05:59:05.132Z,35.57
2018-02-16T06:01:33.333Z,36.13
2018-02-16T06:04:00.832Z,33.83
2018-02-16T06:06:28.284Z,36.97
2018-02-16T06:08:55.702Z,34.30
2018-02-16T06:11:23.137Z,34.50
2018-02-16T06:13:51.334Z,34.23
2018-02-16T06:16:18.787Z,33.42
2018-02-16T06:18:46.217Z,33.30
2018-02-16T06:21:13.829Z,31.33
2018-02-16T06:23:41.403Z,35.90
2018-02-16T06:26:08.929Z,36.50
2018-02-16T06:28:36.485Z,33.80
2018-02-16T06:31:04.088Z,34.90
2018-02-16T06:33:31.607Z,36.28
2018-02-16T06:35:59.062Z,32.50
2018-02-16T06:38:26.541Z,32.40
2018-02-16T06:40:53.988Z,33.95
2018-02-16T06:43:21.422Z,33.25
2018-02-16T06:45:48.870Z,32.78
2018-02-16T06:48:16.358Z,37.45
2018-02-16T06:50:43.829Z,32.33
2018-02-16T06:53:11.274Z,37.53
2018-02-16T06:55:38.709Z,33.08
2018-02-16T06:58:06.169Z,31.08
2018-02-16T07:00:33.653Z,33.80
2018-02-16T07:03:01.186Z,32.70
2018-02-16T07:05:28.652Z,31.58
2018-02-16T07:07:56.089Z,28.83
2018-02-16T07:10:23.519Z,32.20
2018-02-16T07:12:51.741Z,32.33
2018-02-16T07:15:19.221Z,30.37
2018-02-16T07:17:46.676Z,32.90
2018-02-16T07:20:14.149Z,32.50
2018-02-16T07:22:41.589Z,34.70
2018-02-16T07:25:09.044Z,35.20
2018-02-16T07:27:36.492Z,33.67
2018-02-16T07:30:03.947Z,35.55
2018-02-16T07:32:38.435Z,31.15
2018-02-16T07:35:05.874Z,35.90
2018-02-16T07:37:34.089Z,35.63
2018-02-16T07:40:01.576Z,38.67
2018-02-16T07:42:29.102Z,35.35
2018-02-16T07:44:56.538Z,39.15
2018-02-16T07:47:23.981Z,36.13
2018-02-16T07:49:52.187Z,35.65
2018-02-16T07:52:19.640Z,41.33
2018-02-16T07:54:47.090Z,34.25
2018-02-16T07:57:14.597Z,34.88
2018-02-16T07:59:42.019Z,40.88
2018-02-16T08:02:09.473Z,35.30
2018-02-16T08:04:36.914Z,34.75
2018-02-16T08:07:04.453Z,40.42
2018-02-16T08:09:32.654Z,35.40
2018-02-16T08:12:00.163Z,37.78
2018-02-16T08:14:27.700Z,35.38
2018-02-16T08:16:55.132Z,35.33
2018-02-16T08:19:22.582Z,37.83
2018-02-16T08:21:50.046Z,35.53
2018-02-16T08:24:17.548Z,33.37
2018-02-16T08:26:44.997Z,35.83
2018-02-16T08:29:12.448Z,33.97
2018-02-16T08:31:39.905Z,36.22
2018-02-16T08:34:07.370Z,34.83
2018-02-16T08:36:34.889Z,34.75
2018-02-16T08:39:02.334Z,35.15
2018-02-16T08:41:29.793Z,35.67
2018-02-16T08:43:57.241Z,32.38
2018-02-16T08:46:24.696Z,33.78
2018-02-16T08:48:52.148Z,31.45
2018-02-16T08:51:19.604Z,29.20
2018-02-16T08:53:47.071Z,32.10
2018-02-16T08:56:14.533Z,34.40
2018-02-16T08:58:41.986Z,31.35
2018-02-16T09:01:09.426Z,30.95
2018-02-16T09:03:36.890Z,31.33
2018-02-16T09:06:04.352Z,30.98
2018-02-16T09:08:31.802Z,29.30
2018-02-16T09:10:59.323Z,28.02
2018-02-16T09:13:26.761Z,25.37
2018-02-16T09:15:54.224Z,31.75
2018-02-16T09:18:21.787Z,28.92
2018-02-16T09:20:49.373Z,25.90
2018-02-16T09:23:17.580Z,28.15
2018-02-16T09:25:45.362Z,27.85
2018-02-16T09:28:12.849Z,25.85
2018-02-16T09:30:40.289Z,25.55
2018-02-16T09:33:07.716Z,23.67
2018-02-16T09:35:35.253Z,23.12
2018-02-16T09:38:02.705Z,26.95
2018-02-16T09:40:30.304Z,28.08
2018-02-16T09:42:57.738Z,25.70
2018-02-16T09:45:25.200Z,23.77
2018-02-16T09:47:52.670Z,25.60
2018-02-16T09:50:20.110Z,25.95
2018-02-16T09:52:47.562Z,24.33
2018-02-16T09:55:15.140Z,28.10
2018-02-16T09:57:42.605Z,20.30
2018-02-16T10:00:10.050Z,22.58
2018-02-16T10:02:37.500Z,24.40
2018-02-16T10:05:04.943Z,24.67
2018-02-16T10:07:32.402Z,21.45
2018-02-16T10:09:59.878Z,24.70
2018-02-16T10:12:27.349Z,19.58
2018-02-16T10:14:54.841Z,18.83
2018-02-16T10:17:23.459Z,19.80
2018-02-16T10:19:50.913Z,23.80
2018-02-16T10:22:18.398Z,18.37
2018-02-16T10:24:46.148Z,21.25
2018-02-16T10:27:13.589Z,22.40
2018-02-16T10:29:41.054Z,21.10
2018-02-16T10:32:08.509Z,19.30
2018-02-16T10:34:35.961Z,20.05
2018-02-16T10:37:03.429Z,22.85
2018-02-16T10:39:30.905Z,18.87
2018-02-16T10:41:58.446Z,18.90
2018-02-16T10:44:25.927Z,19.98
2018-02-16T10:46:53.470Z,20.00
2018-02-16T10:49:20.934Z,20.08
2018-02-16T10:51:48.474Z,23.45
2018-02-16T10:54:16.025Z,19.23
2018-02-16T10:56:43.510Z,19.60
2018-02-16T10:59:10.954Z,19.75
2018-02-16T11:01:43.546Z,19.55
2018-02-16T11:04:16.705Z,15.80
2018-02-16T11:06:49.049Z,19.07
2018-02-16T11:09:20.436Z,20.30
2018-02-16T11:11:47.897Z,19.87
2018-02-16T11:14:15.332Z,22.27
2018-02-16T11:16:42.946Z,19.55
2018-02-16T11:19:10.365Z,21.17
2018-02-16T11:21:37.830Z,20.23
2018-02-16T11:24:05.278Z,17.98
2018-02-16T11:26:32.776Z,19.73
2018-02-16T11:29:00.998Z,20.20
2018-02-16T11:31:28.458Z,21.65
2018-02-16T11:33:56.526Z,19.70
2018-02-16T11:36:23.946Z,17.40
2018-02-16T11:38:52.170Z,18.98
2018-02-16T11:41:19.642Z,21.12
2018-02-16T11:43:47.110Z,18.90
2018-02-16T11:46:14.558Z,18.83
2018-02-16T11:48:42.007Z,18.37
2018-02-16T11:51:09.486Z,18.02
2018-02-16T11:53:37.717Z,19.27
2018-02-16T11:56:05.927Z,19.25
2018-02-16T11:58:33.400Z,19.67
2018-02-16T12:01:01.639Z,20.83
2018-02-16T12:03:29.074Z,21.10
2018-02-16T12:05:56.507Z,23.40
2018-02-16T12:08:23.942Z,17.08
2018-02-16T12:10:52.153Z,17.08
2018-02-16T12:13:19.601Z,15.40
2018-02-16T12:15:47.038Z,18.55
2018-02-16T12:18:14.477Z,19.12
2018-02-16T12:20:42.699Z,19.73
2018-02-16T12:23:10.138Z,14.20
2018-02-16T12:25:37.595Z,12.95
2018-02-16T12:28:05.114Z,18.35
2018-02-16T12:30:32.581Z,14.02
2018-02-16T12:33:00.103Z,19.92
2018-02-16T12:35:27.570Z,16.80
2018-02-16T12:37:55.113Z,17.52
2018-02-16T12:40:22.546Z,17.60
2018-02-16T12:42:50.079Z,21.62
2018-02-16T12:45:18.426Z,13.50
2018-02-16T12:47:46.282Z,17.75
2018-02-16T12:50:13.758Z,13.45
2018-02-16T12:52:41.414Z,16.90
2018-02-16T12:55:08.999Z,20.40
2018-02-16T12:57:36.496Z,18.67
2018-02-16T13:00:03.936Z,19.70
2018-02-16T13:02:31.366Z,14.07
2018-02-16T13:04:58.805Z,14.48
2018-02-16T13:07:26.225Z,15.87
2018-02-16T13:09:53.669Z,16.87
2018-02-16T13:12:21.226Z,15.38
2018-02-16T13:14:48.771Z,18.02
2018-02-16T13:17:16.214Z,13.13
2018-02-16T13:19:43.683Z,17.42
2018-02-16T13:22:11.280Z,15.85
2018-02-16T13:24:38.742Z,12.77
2018-02-16T13:27:06.175Z,14.48
2018-02-16T13:29:33.614Z,15.75
2018-02-16T13:32:01.074Z,16.37
2018-02-16T13:34:28.667Z,17.17
2018-02-16T13:36:56.146Z,15.35
2018-02-16T13:39:23.590Z,15.70
2018-02-16T13:41:51.046Z,13.57
2018-02-16T13:44:18.486Z,17.03
2018-02-16T13:46:45.957Z,15.73
2018-02-16T13:49:13.399Z,13.68
2018-02-16T13:51:40.925Z,15.73
2018-02-16T13:54:08.409Z,19.00
2018-02-16T13:56:35.843Z,15.50
2018-02-16T13:59:03.279Z,17.98
2018-02-16T14:01:31.514Z,16.02
2018-02-16T14:03:58.949Z,12.90
2018-02-16T14:06:26.485Z,15.53
2018-02-16T14:08:53.903Z,21.00
2018-02-16T14:11:21.343Z,18.65
2018-02-16T14:13:48.868Z,16.55
2018-02-16T14:16:16.290Z,15.27
2018-02-16T14:18:44.604Z,14.05
2018-02-16T14:21:12.037Z,17.10
2018-02-16T14:23:39.468Z,15.60
2018-02-16T14:26:07.691Z,15.13
2018-02-16T14:28:35.138Z,17.67
2018-02-16T14:31:02.805Z,16.40
2018-02-16T14:33:30.285Z,15.87
2018-02-16T14:35:57.731Z,12.80
2018-02-16T14:38:25.195Z,18.58
2018-02-16T14:40:52.649Z,16.77
2018-02-16T14:43:20.102Z,13.10
2018-02-16T14:45:47.543Z,16.80
2018-02-16T14:48:14.982Z,13.82
2018-02-16T14:50:42.410Z,15.60
2018-02-16T14:53:09.870Z,16.98
2018-02-16T14:55:38.136Z,13.93
2018-02-16T14:58:05.598Z,16.77
2018-02-16T15:00:33.002Z,14.52
2018-02-16T15:03:00.469Z,13.60
2018-02-16T15:05:27.885Z,12.30
2018-02-16T15:07:55.318Z,15.55
2018-02-16T15:10:23.517Z,14.65
2018-02-16T15:12:50.950Z,17.45
2018-02-16T15:15:19.153Z,16.10
2018-02-16T15:17:46.615Z,15.27
2018-02-16T15:20:14.810Z,17.58
2018-02-16T15:22:42.267Z,17.55
2018-02-16T15:25:09.709Z,13.05
2018-02-16T15:27:37.163Z,15.02
2018-02-16T15:30:04.597Z,12.73
2018-02-16T15:32:32.034Z,16.67
2018-02-16T15:35:00.229Z,13.23
2018-02-16T15:37:27.731Z,16.70
2018-02-16T15:39:55.161Z,16.50
2018-02-16T15:42:22.615Z,13.65
2018-02-16T15:44:50.074Z,15.50
2018-02-16T15:47:17.525Z,18.98
2018-02-16T15:49:44.957Z,14.43
2018-02-16T15:52:13.158Z,16.10
2018-02-16T15:54:40.586Z,15.23
2018-02-16T15:57:08.798Z,14.87
2018-02-16T15:59:36.243Z,18.35
2018-02-16T16:02:03.684Z,16.12
2018-02-16T16:04:31.885Z,21.00
2018-02-16T16:06:59.745Z,15.68
2018-02-16T16:09:27.189Z,14.55
2018-02-16T16:11:54.626Z,10.23
2018-02-16T16:14:22.118Z,14.68
2018-02-16T16:16:49.539Z,14.60
2018-02-16T16:19:16.988Z,11.53
2018-02-16T16:21:44.439Z,11.55
2018-02-16T16:24:11.949Z,11.15
2018-02-16T16:26:39.365Z,13.50
2018-02-16T16:29:07.570Z,14.52
2018-02-16T16:31:35.005Z,11.48
2018-02-16T16:34:03.403Z,12.88
2018-02-16T16:36:31.076Z,13.05
2018-02-16T16:38:58.686Z,11.57
2018-02-16T16:41:27.045Z,13.57
2018-02-16T16:43:54.668Z,10.48
2018-02-16T16:46:22.258Z,16.05
2018-02-16T16:48:50.096Z,11.60
2018-02-16T16:51:18.489Z,12.27
2018-02-16T16:53:46.005Z,17.10
2018-02-16T16:56:14.182Z,17.73
2018-02-16T16:58:41.619Z,14.70
2018-02-16T17:01:09.076Z,15.55
2018-02-16T17:03:36.506Z,14.25
2018-02-16T17:06:03.945Z,17.02
2018-02-16T17:08:31.402Z,16.25
2018-02-16T17:10:58.841Z,17.20
2018-02-16T17:13:26.269Z,15.75
2018-02-16T17:15:54.490Z,14.15
2018-02-16T17:18:22.038Z,13.15
2018-02-16T17:20:49.461Z,13.68
2018-02-16T17:23:17.657Z,14.20
2018-02-16T17:25:45.086Z,13.65
2018-02-16T17:28:13.302Z,12.63
2018-02-16T17:30:40.745Z,11.75
2018-02-16T17:33:08.181Z,13.98
2018-02-16T17:35:35.631Z,12.25
2018-02-16T17:38:03.825Z,12.07
2018-02-16T17:40:31.264Z,14.23
2018-02-16T17:42:58.685Z,16.75
2018-02-16T17:45:26.147Z,16.25
2018-02-16T17:47:53.579Z,14.35
2018-02-16T17:50:21.018Z,17.00
2018-02-16T17:52:48.514Z,15.93
2018-02-16T17:55:15.942Z,16.95
2018-02-16T17:57:43.394Z,18.27
2018-02-16T18:00:10.824Z,16.23
2018-02-16T18:02:38.254Z,11.90
2018-02-16T18:05:06.463Z,18.85
2018-02-16T18:07:34.852Z,14.95
2018-02-16T18:10:02.262Z,15.93
2018-02-16T18:12:29.690Z,14.48
2018-02-16T18:14:57.139Z,17.73
2018-02-16T18:17:25.537Z,14.77
2018-02-16T18:19:53.052Z,17.58
2018-02-16T18:22:20.485Z,17.60
2018-02-16T18:24:48.677Z,18.65
2018-02-16T18:27:16.133Z,17.55
2018-02-16T18:29:43.597Z,18.60
2018-02-16T18:32:11.110Z,17.12
2018-02-16T18:34:38.554Z,17.12
2018-02-16T18:37:06.002Z,16.00
2018-02-16T18:39:33.527Z,15.88
2018-02-16T18:42:00.983Z,16.77
2018-02-16T18:44:28.440Z,14.25
2018-02-16T18:46:55.869Z,15.15
2018-02-16T18:49:23.319Z,17.20
2018-02-16T18:51:51.505Z,16.93
2018-02-16T18:54:18.929Z,17.73
2018-02-16T18:56:46.365Z,17.80
2018-02-16T18:59:13.790Z,19.77
2018-02-16T19:01:41.226Z,15.50
2018-02-16T19:04:08.649Z,16.10
2018-02-16T19:06:36.097Z,17.15
2018-02-16T19:09:03.546Z,17.25
2018-02-16T19:11:30.996Z,14.18
2018-02-16T19:13:58.429Z,15.80
2018-02-16T19:16:25.868Z,16.30
2018-02-16T19:18:53.306Z,17.55
2018-02-16T19:21:22.052Z,17.80
2018-02-16T19:23:49.521Z,18.60
2018-02-16T19:26:17.188Z,17.50
2018-02-16T19:28:45.446Z,20.55
2018-02-16T19:31:13.188Z,21.08
2018-02-16T19:33:40.804Z,16.02
2018-02-16T19:36:09.006Z,18.48
2018-02-16T19:38:36.458Z,19.62
2018-02-16T19:41:04.022Z,20.30
2018-02-16T19:43:31.466Z,18.17
2018-02-16T19:45:59.422Z,17.73
2018-02-16T19:48:26.950Z,15.17
2018-02-16T19:50:54.370Z,16.13
2018-02-16T19:53:21.801Z,16.87
2018-02-16T19:55:50.285Z,16.83
2018-02-16T19:58:17.866Z,16.17
2018-02-16T20:00:45.306Z,20.90
2018-02-16T20:03:13.189Z,15.23
2018-02-16T20:05:41.260Z,17.40
2018-02-16T20:08:10.227Z,18.90
2018-02-16T20:10:39.098Z,17.00
2018-02-16T20:13:06.607Z,22.50
2018-02-16T20:15:34.042Z,23.20
2018-02-16T20:18:01.465Z,21.58
2018-02-16T20:20:29.677Z,18.85
2018-02-16T20:22:57.926Z,17.37
2018-02-16T20:25:26.245Z,16.12
2018-02-16T20:27:54.012Z,18.87
2018-02-16T20:30:21.767Z,16.55
2018-02-16T20:32:49.242Z,18.83
2018-02-16T20:35:16.706Z,16.30
2018-02-16T20:37:44.142Z,16.65
2018-02-16T20:40:11.578Z,22.50
2018-02-16T20:42:39.010Z,17.95
2018-02-16T20:45:07.218Z,17.52
2018-02-16T20:47:34.678Z,15.55
2018-02-16T20:50:02.137Z,19.70
2018-02-16T20:52:29.569Z,18.00
2018-02-16T20:54:57.127Z,17.23
2018-02-16T20:57:24.559Z,17.75
2018-02-16T20:59:51.994Z,20.92
2018-02-16T21:02:19.433Z,18.12
2018-02-16T21:04:46.882Z,19.45
2018-02-16T21:07:14.530Z,13.98
2018-02-16T21:09:41.973Z,17.27
2018-02-16T21:12:09.423Z,22.00
2018-02-16T21:14:37.622Z,18.10
2018-02-16T21:17:05.109Z,18.17
2018-02-16T21:19:32.541Z,19.35
2018-02-16T21:22:00.803Z,21.52
2018-02-16T21:24:28.212Z,19.15
2018-02-16T21:26:55.650Z,19.25
2018-02-16T21:29:23.090Z,18.48
2018-02-16T21:31:50.514Z,23.50
2018-02-16T21:34:17.948Z,22.48
2018-02-16T21:36:46.189Z,17.45
2018-02-16T21:39:13.569Z,20.90
2018-02-16T21:41:41.775Z,21.20
2018-02-16T21:44:09.210Z,20.60
2018-02-16T21:46:36.646Z,20.25
2018-02-16T21:49:04.070Z,22.33
2018-02-16T21:51:31.542Z,17.50
2018-02-16T21:53:58.966Z,14.10
2018-02-16T21:56:26.409Z,21.57
2018-02-16T21:58:53.829Z,16.80
2018-02-16T22:01:21.304Z,21.35
2018-02-16T22:03:48.689Z,19.05
2018-02-16T22:06:16.149Z,18.98
2018-02-16T22:08:43.569Z,16.45
2018-02-16T22:11:11.782Z,19.45
2018-02-16T22:13:39.209Z,19.12
2018-02-16T22:16:06.642Z,21.02
2018-02-16T22:18:34.856Z,17.50
2018-02-16T22:21:02.310Z,21.48
2018-02-16T22:23:29.756Z,21.23
2018-02-16T22:25:57.197Z,20.75
2018-02-16T22:28:25.395Z,17.37
2018-02-16T22:30:52.842Z,16.47
2018-02-16T22:33:20.265Z,19.80
2018-02-16T22:35:47.694Z,20.60
2018-02-16T22:38:15.147Z,16.03
2018-02-16T22:40:42.570Z,16.33
2018-02-16T22:43:10.010Z,19.52
2018-02-16T22:45:38.203Z,23.80
2018-02-16T22:48:05.641Z,15.15
2018-02-16T22:50:33.853Z,22.02
2018-02-16T22:53:01.299Z,22.65
2018-02-16T22:55:28.747Z,20.42
2018-02-16T22:57:56.201Z,16.95
2018-02-16T23:00:23.974Z,16.58
2018-02-16T23:02:51.428Z,21.55
2018-02-16T23:05:18.859Z,20.62
2018-02-16T23:07:47.064Z,23.23
2018-02-16T23:10:14.511Z,16.45
2018-02-16T23:12:41.950Z,19.87
2018-02-16T23:15:09.373Z,22.80
2018-02-16T23:17:36.809Z,21.95
2018-02-16T23:20:05.008Z,23.48
2018-02-16T23:22:32.446Z,25.77
2018-02-16T23:24:59.878Z,23.85
2018-02-16T23:27:27.301Z,19.50
2018-02-16T23:29:54.734Z,21.55
2018-02-16T23:32:22.166Z,22.02
2018-02-16T23:34:49.610Z,26.08
2018-02-16T23:37:17.050Z,20.42
2018-02-16T23:39:44.497Z,23.02
2018-02-16T23:42:11.946Z,29.63
2018-02-16T23:44:39.349Z,23.45
2018-02-16T23:47:06.830Z,23.77
2018-02-16T23:49:34.258Z,22.95
2018-02-16T23:52:01.711Z,18.55
2018-02-16T23:54:29.154Z,19.45
2018-02-16T23:56:57.349Z,18.87
2018-02-16T23:59:24.776Z,19.10
